OTBH/IUD METAR and TAF weather

Enter ICAO airport designator
Station Type Date Time Source
OTBH METAR 2020/01/20 18:56 UTC NOAA

OTBH 201856Z 30006KT 9000 HZ CLR 16/13 A3012 RMK AO2A SLP202 WND DATA ESTMD ALSTG/SLP ESTMD T01600125 $


Station Type Date Time Source
OTBH Decoded METAR 2020/01/20 18:56 UTC NOAA

Station name not available
Jan 20, 2020 - 01:56 PM EST / 2020.01.20 1856 UTC
Wind: from the WNW (300 degrees) at 7 MPH (6 KT):0
Visibility: 5 mile(s):0
Sky conditions: clear
Weather: haze
Temperature: 60.8 F (16.0 C)
Dew Point: 54.5 F (12.5 C)
Relative Humidity: 79%
Pressure (altimeter): 30.12 in. Hg (1019 hPa)
ob: OTBH 201856Z 30006KT 9000 HZ CLR 16/13 A3012 RMK AO2A SLP202 WND DATA ESTMD ALSTG/SLP ESTMD T01600125
cycle: 19

Station Type Date Time Source
OTBH TAF 2020/01/20 16:59 UTC NOAA

TAF OTBH 201553Z 2016/2122 32010KT 9000 HZ SKC QNH3006INS
TEMPO 2102/2105 8000 BR
BECMG 2107/2108 34010G15KT 9000 HZ SKC QNH3005INS
BECMG 2111/2112 01010KT 9000 HZ SKC QNH3003INS
BECMG 2116/2117 04007KT 9000 HZ FEW080 QNH3006INS TX22/2112Z TN13/2103Z

Example: see airport list